sensor_id;sensor_type;location;lat;lon;timestamp;P1;durP1;ratioP1;P2;durP2;ratioP2
65471;SDS011;52068;50.710;14.492;2023-09-19T00:01:32;3.15;;;1.90;;
65471;SDS011;52068;50.710;14.492;2023-09-19T00:03:58;3.47;;;1.60;;
65471;SDS011;52068;50.710;14.492;2023-09-19T00:06:24;2.47;;;1.60;;
65471;SDS011;52068;50.710;14.492;2023-09-19T00:08:51;2.00;;;1.80;;
65471;SDS011;52068;50.710;14.492;2023-09-19T00:11:16;2.72;;;1.73;;
65471;SDS011;52068;50.710;14.492;2023-09-19T00:13:42;2.10;;;1.80;;
65471;SDS011;52068;50.710;14.492;2023-09-19T00:16:08;2.10;;;1.77;;
65471;SDS011;52068;50.710;14.492;2023-09-19T00:18:36;4.07;;;2.10;;
65471;SDS011;52068;50.710;14.492;2023-09-19T00:21:03;4.47;;;1.92;;
65471;SDS011;52068;50.710;14.492;2023-09-19T00:23:30;1.70;;;1.55;;
65471;SDS011;52068;50.710;14.492;2023-09-19T00:25:59;2.35;;;1.88;;
65471;SDS011;52068;50.710;14.492;2023-09-19T00:28:25;2.70;;;1.98;;
65471;SDS011;52068;50.710;14.492;2023-09-19T00:30:56;2.67;;;1.83;;
65471;SDS011;52068;50.710;14.492;2023-09-19T00:33:22;2.55;;;1.80;;
65471;SDS011;52068;50.710;14.492;2023-09-19T00:35:51;2.20;;;1.98;;
65471;SDS011;52068;50.710;14.492;2023-09-19T00:38:17;2.65;;;1.80;;
65471;SDS011;52068;50.710;14.492;2023-09-19T00:40:47;2.10;;;1.75;;
65471;SDS011;52068;50.710;14.492;2023-09-19T00:43:13;3.10;;;2.00;;
65471;SDS011;52068;50.710;14.492;2023-09-19T00:45:42;1.60;;;1.50;;
65471;SDS011;52068;50.710;14.492;2023-09-19T00:48:13;2.72;;;1.77;;
65471;SDS011;52068;50.710;14.492;2023-09-19T00:50:38;3.70;;;1.65;;
65471;SDS011;52068;50.710;14.492;2023-09-19T00:53:07;3.53;;;1.77;;
65471;SDS011;52068;50.710;14.492;2023-09-19T00:55:33;1.67;;;1.58;;
65471;SDS011;52068;50.710;14.492;2023-09-19T00:57:59;3.15;;;1.65;;
65471;SDS011;52068;50.710;14.492;2023-09-19T01:00:25;2.10;;;1.60;;
65471;SDS011;52068;50.710;14.492;2023-09-19T01:02:51;2.42;;;1.75;;
65471;SDS011;52068;50.710;14.492;2023-09-19T01:05:17;3.08;;;1.80;;
65471;SDS011;52068;50.710;14.492;2023-09-19T01:07:43;1.70;;;1.60;;
65471;SDS011;52068;50.710;14.492;2023-09-19T01:10:15;2.53;;;1.60;;
65471;SDS011;52068;50.710;14.492;2023-09-19T01:12:52;4.28;;;1.77;;
65471;SDS011;52068;50.710;14.492;2023-09-19T01:20:46;2.25;;;1.80;;
65471;SDS011;52068;50.710;14.492;2023-09-19T01:29:12;3.45;;;1.80;;
65471;SDS011;52068;50.710;14.492;2023-09-19T01:31:56;2.78;;;1.63;;
65471;SDS011;52068;50.710;14.492;2023-09-19T01:34:26;1.63;;;1.52;;
65471;SDS011;52068;50.710;14.492;2023-09-19T01:36:51;1.77;;;1.52;;
65471;SDS011;52068;50.710;14.492;2023-09-19T01:39:17;2.38;;;1.50;;
65471;SDS011;52068;50.710;14.492;2023-09-19T01:42:03;1.92;;;1.70;;
65471;SDS011;52068;50.710;14.492;2023-09-19T01:44:48;4.38;;;1.65;;
65471;SDS011;52068;50.710;14.492;2023-09-19T01:53:27;2.72;;;1.55;;
65471;SDS011;52068;50.710;14.492;2023-09-19T01:56:34;1.50;;;1.40;;
65471;SDS011;52068;50.710;14.492;2023-09-19T01:59:08;2.08;;;1.35;;
65471;SDS011;52068;50.710;14.492;2023-09-19T02:01:37;2.85;;;1.65;;
65471;SDS011;52068;50.710;14.492;2023-09-19T02:04:04;1.60;;;1.50;;
65471;SDS011;52068;50.710;14.492;2023-09-19T02:06:29;3.28;;;1.50;;
65471;SDS011;52068;50.710;14.492;2023-09-19T02:08:55;1.92;;;1.67;;
65471;SDS011;52068;50.710;14.492;2023-09-19T02:11:20;1.80;;;1.70;;
65471;SDS011;52068;50.710;14.492;2023-09-19T02:13:46;1.50;;;1.30;;
65471;SDS011;52068;50.710;14.492;2023-09-19T02:16:11;3.78;;;1.55;;
65471;SDS011;52068;50.710;14.492;2023-09-19T02:18:37;2.15;;;1.40;;
65471;SDS011;52068;50.710;14.492;2023-09-19T02:21:04;1.92;;;1.20;;
65471;SDS011;52068;50.710;14.492;2023-09-19T02:23:32;3.47;;;1.55;;
65471;SDS011;52068;50.710;14.492;2023-09-19T02:25:58;2.03;;;1.27;;
65471;SDS011;52068;50.710;14.492;2023-09-19T02:28:25;2.45;;;1.60;;
65471;SDS011;52068;50.710;14.492;2023-09-19T02:30:55;1.73;;;1.40;;
65471;SDS011;52068;50.710;14.492;2023-09-19T02:33:21;1.83;;;1.40;;
65471;SDS011;52068;50.710;14.492;2023-09-19T02:35:46;2.10;;;1.45;;
65471;SDS011;52068;50.710;14.492;2023-09-19T02:38:12;2.72;;;1.50;;
65471;SDS011;52068;50.710;14.492;2023-09-19T02:40:37;2.15;;;1.40;;
65471;SDS011;52068;50.710;14.492;2023-09-19T02:43:03;1.50;;;1.40;;
65471;SDS011;52068;50.710;14.492;2023-09-19T02:45:29;2.08;;;1.40;;
65471;SDS011;52068;50.710;14.492;2023-09-19T02:47:55;1.60;;;1.50;;
65471;SDS011;52068;50.710;14.492;2023-09-19T02:50:21;1.42;;;1.20;;
65471;SDS011;52068;50.710;14.492;2023-09-19T02:52:46;1.50;;;1.40;;
65471;SDS011;52068;50.710;14.492;2023-09-19T02:55:13;1.85;;;1.30;;
65471;SDS011;52068;50.710;14.492;2023-09-19T02:57:45;2.15;;;1.40;;
65471;SDS011;52068;50.710;14.492;2023-09-19T03:00:11;1.40;;;1.30;;
65471;SDS011;52068;50.710;14.492;2023-09-19T03:02:37;1.48;;;1.33;;
65471;SDS011;52068;50.710;14.492;2023-09-19T03:05:05;1.60;;;1.50;;
65471;SDS011;52068;50.710;14.492;2023-09-19T03:07:31;1.35;;;1.25;;
65471;SDS011;52068;50.710;14.492;2023-09-19T03:09:57;1.67;;;1.35;;
65471;SDS011;52068;50.710;14.492;2023-09-19T03:12:22;1.80;;;1.50;;
65471;SDS011;52068;50.710;14.492;2023-09-19T03:14:47;1.30;;;1.20;;
65471;SDS011;52068;50.710;14.492;2023-09-19T03:17:13;7.28;;;1.80;;
65471;SDS011;52068;50.710;14.492;2023-09-19T03:19:39;1.50;;;1.40;;
65471;SDS011;52068;50.710;14.492;2023-09-19T03:22:05;1.50;;;1.40;;
65471;SDS011;52068;50.710;14.492;2023-09-19T03:24:30;1.65;;;1.38;;
65471;SDS011;52068;50.710;14.492;2023-09-19T03:26:56;1.48;;;1.38;;
65471;SDS011;52068;50.710;14.492;2023-09-19T03:29:22;1.48;;;1.27;;
65471;SDS011;52068;50.710;14.492;2023-09-19T03:31:47;1.80;;;1.30;;
65471;SDS011;52068;50.710;14.492;2023-09-19T03:34:13;2.28;;;1.35;;
65471;SDS011;52068;50.710;14.492;2023-09-19T03:36:38;1.63;;;1.27;;
65471;SDS011;52068;50.710;14.492;2023-09-19T03:39:05;1.30;;;1.20;;
65471;SDS011;52068;50.710;14.492;2023-09-19T03:41:31;2.08;;;1.55;;
65471;SDS011;52068;50.710;14.492;2023-09-19T03:43:58;2.75;;;1.30;;
65471;SDS011;52068;50.710;14.492;2023-09-19T03:46:23;2.33;;;1.30;;
65471;SDS011;52068;50.710;14.492;2023-09-19T03:48:49;3.15;;;1.30;;
65471;SDS011;52068;50.710;14.492;2023-09-19T03:51:15;1.30;;;1.20;;
65471;SDS011;52068;50.710;14.492;2023-09-19T03:53:40;1.38;;;1.27;;
65471;SDS011;52068;50.710;14.492;2023-09-19T03:56:06;2.22;;;1.50;;
65471;SDS011;52068;50.710;14.492;2023-09-19T03:58:33;1.40;;;1.30;;
65471;SDS011;52068;50.710;14.492;2023-09-19T04:01:00;3.92;;;1.27;;
65471;SDS011;52068;50.710;14.492;2023-09-19T04:03:25;1.42;;;1.30;;
65471;SDS011;52068;50.710;14.492;2023-09-19T04:06:00;2.22;;;1.30;;
65471;SDS011;52068;50.710;14.492;2023-09-19T04:08:26;3.42;;;1.20;;
65471;SDS011;52068;50.710;14.492;2023-09-19T04:10:52;2.28;;;1.38;;
65471;SDS011;52068;50.710;14.492;2023-09-19T04:13:18;2.35;;;1.23;;
65471;SDS011;52068;50.710;14.492;2023-09-19T04:15:43;1.20;;;1.10;;
65471;SDS011;52068;50.710;14.492;2023-09-19T04:18:11;1.40;;;1.30;;
65471;SDS011;52068;50.710;14.492;2023-09-19T04:20:36;1.00;;;1.00;;
65471;SDS011;52068;50.710;14.492;2023-09-19T04:23:02;1.10;;;1.00;;
65471;SDS011;52068;50.710;14.492;2023-09-19T04:25:27;1.20;;;1.10;;
65471;SDS011;52068;50.710;14.492;2023-09-19T04:27:53;1.52;;;1.30;;
65471;SDS011;52068;50.710;14.492;2023-09-19T04:30:18;3.70;;;1.10;;
65471;SDS011;52068;50.710;14.492;2023-09-19T04:32:44;1.02;;;0.93;;
65471;SDS011;52068;50.710;14.492;2023-09-19T04:35:10;1.30;;;1.00;;
65471;SDS011;52068;50.710;14.492;2023-09-19T04:37:39;1.58;;;1.20;;
65471;SDS011;52068;50.710;14.492;2023-09-19T04:40:09;1.55;;;1.15;;
65471;SDS011;52068;50.710;14.492;2023-09-19T04:42:39;1.98;;;1.20;;
65471;SDS011;52068;50.710;14.492;2023-09-19T04:45:05;1.15;;;1.10;;
65471;SDS011;52068;50.710;14.492;2023-09-19T04:47:32;1.33;;;1.23;;
65471;SDS011;52068;50.710;14.492;2023-09-19T04:49:57;1.25;;;1.15;;
65471;SDS011;52068;50.710;14.492;2023-09-19T04:52:24;1.25;;;1.15;;
65471;SDS011;52068;50.710;14.492;2023-09-19T04:54:50;3.42;;;0.90;;
65471;SDS011;52068;50.710;14.492;2023-09-19T04:57:15;2.35;;;1.20;;
65471;SDS011;52068;50.710;14.492;2023-09-19T04:59:41;1.67;;;1.25;;
65471;SDS011;52068;50.710;14.492;2023-09-19T05:02:06;1.33;;;1.20;;
65471;SDS011;52068;50.710;14.492;2023-09-19T05:04:35;1.48;;;1.30;;
65471;SDS011;52068;50.710;14.492;2023-09-19T05:07:00;3.38;;;1.40;;
65471;SDS011;52068;50.710;14.492;2023-09-19T05:09:28;1.35;;;1.02;;
65471;SDS011;52068;50.710;14.492;2023-09-19T05:11:53;1.65;;;1.13;;
65471;SDS011;52068;50.710;14.492;2023-09-19T05:14:19;1.40;;;1.10;;
65471;SDS011;52068;50.710;14.492;2023-09-19T05:16:46;1.55;;;1.20;;
65471;SDS011;52068;50.710;14.492;2023-09-19T05:19:11;1.02;;;0.95;;
65471;SDS011;52068;50.710;14.492;2023-09-19T05:21:37;3.58;;;1.45;;
65471;SDS011;52068;50.710;14.492;2023-09-19T05:24:04;1.33;;;1.23;;
65471;SDS011;52068;50.710;14.492;2023-09-19T05:26:31;1.23;;;1.10;;
65471;SDS011;52068;50.710;14.492;2023-09-19T05:28:57;1.73;;;1.10;;
65471;SDS011;52068;50.710;14.492;2023-09-19T05:31:22;1.30;;;1.20;;
65471;SDS011;52068;50.710;14.492;2023-09-19T05:33:49;1.20;;;1.05;;
65471;SDS011;52068;50.710;14.492;2023-09-19T05:36:15;1.60;;;1.05;;
65471;SDS011;52068;50.710;14.492;2023-09-19T05:38:42;1.00;;;0.90;;
65471;SDS011;52068;50.710;14.492;2023-09-19T05:41:07;1.33;;;1.20;;
65471;SDS011;52068;50.710;14.492;2023-09-19T05:43:35;1.10;;;1.00;;
65471;SDS011;52068;50.710;14.492;2023-09-19T05:46:02;2.28;;;1.10;;
65471;SDS011;52068;50.710;14.492;2023-09-19T05:48:28;1.63;;;1.20;;
65471;SDS011;52068;50.710;14.492;2023-09-19T05:50:54;1.52;;;1.25;;
65471;SDS011;52068;50.710;14.492;2023-09-19T05:53:19;1.92;;;1.20;;
65471;SDS011;52068;50.710;14.492;2023-09-19T05:55:44;3.45;;;1.08;;
65471;SDS011;52068;50.710;14.492;2023-09-19T05:58:10;2.78;;;1.13;;
65471;SDS011;52068;50.710;14.492;2023-09-19T06:00:38;1.35;;;1.00;;
65471;SDS011;52068;50.710;14.492;2023-09-19T06:03:06;1.23;;;1.08;;
65471;SDS011;52068;50.710;14.492;2023-09-19T06:05:33;1.20;;;1.02;;
65471;SDS011;52068;50.710;14.492;2023-09-19T06:07:58;1.40;;;1.08;;
65471;SDS011;52068;50.710;14.492;2023-09-19T06:10:32;2.45;;;1.10;;
65471;SDS011;52068;50.710;14.492;2023-09-19T06:12:59;1.45;;;1.10;;
65471;SDS011;52068;50.710;14.492;2023-09-19T06:15:25;1.90;;;1.20;;
65471;SDS011;52068;50.710;14.492;2023-09-19T06:17:51;1.10;;;1.00;;
65471;SDS011;52068;50.710;14.492;2023-09-19T06:20:20;1.60;;;1.20;;
65471;SDS011;52068;50.710;14.492;2023-09-19T06:22:47;2.28;;;0.95;;
65471;SDS011;52068;50.710;14.492;2023-09-19T06:25:13;7.50;;;1.10;;
65471;SDS011;52068;50.710;14.492;2023-09-19T06:27:47;1.95;;;1.02;;
65471;SDS011;52068;50.710;14.492;2023-09-19T06:30:20;1.85;;;1.10;;
65471;SDS011;52068;50.710;14.492;2023-09-19T06:32:47;5.03;;;0.85;;
65471;SDS011;52068;50.710;14.492;2023-09-19T06:35:14;1.73;;;1.00;;
65471;SDS011;52068;50.710;14.492;2023-09-19T06:37:41;2.13;;;1.00;;
65471;SDS011;52068;50.710;14.492;2023-09-19T06:40:09;1.25;;;0.90;;
65471;SDS011;52068;50.710;14.492;2023-09-19T06:42:42;1.95;;;1.30;;
65471;SDS011;52068;50.710;14.492;2023-09-19T06:45:09;3.08;;;1.17;;
65471;SDS011;52068;50.710;14.492;2023-09-19T06:47:38;1.20;;;1.10;;
65471;SDS011;52068;50.710;14.492;2023-09-19T06:50:03;4.35;;;0.90;;
65471;SDS011;52068;50.710;14.492;2023-09-19T06:52:30;1.95;;;1.00;;
65471;SDS011;52068;50.710;14.492;2023-09-19T06:54:57;0.90;;;0.90;;
65471;SDS011;52068;50.710;14.492;2023-09-19T06:57:22;1.08;;;0.90;;
65471;SDS011;52068;50.710;14.492;2023-09-19T06:59:47;0.80;;;0.80;;
65471;SDS011;52068;50.710;14.492;2023-09-19T07:02:13;1.20;;;1.00;;
65471;SDS011;52068;50.710;14.492;2023-09-19T07:04:38;1.92;;;1.23;;
65471;SDS011;52068;50.710;14.492;2023-09-19T07:07:04;1.20;;;1.10;;
65471;SDS011;52068;50.710;14.492;2023-09-19T07:09:29;1.00;;;1.00;;
65471;SDS011;52068;50.710;14.492;2023-09-19T07:11:55;1.33;;;1.10;;
65471;SDS011;52068;50.710;14.492;2023-09-19T07:14:21;1.10;;;1.00;;
65471;SDS011;52068;50.710;14.492;2023-09-19T07:16:46;1.77;;;1.10;;
65471;SDS011;52068;50.710;14.492;2023-09-19T07:19:12;1.27;;;1.08;;
65471;SDS011;52068;50.710;14.492;2023-09-19T07:21:40;2.63;;;1.00;;
65471;SDS011;52068;50.710;14.492;2023-09-19T07:24:05;0.93;;;0.82;;
65471;SDS011;52068;50.710;14.492;2023-09-19T07:26:31;2.67;;;1.10;;
65471;SDS011;52068;50.710;14.492;2023-09-19T07:28:56;1.05;;;1.00;;
65471;SDS011;52068;50.710;14.492;2023-09-19T07:31:27;0.95;;;0.95;;
65471;SDS011;52068;50.710;14.492;2023-09-19T07:33:53;1.95;;;1.08;;
65471;SDS011;52068;50.710;14.492;2023-09-19T07:36:19;1.13;;;1.02;;
65471;SDS011;52068;50.710;14.492;2023-09-19T07:38:45;3.03;;;1.17;;
65471;SDS011;52068;50.710;14.492;2023-09-19T07:41:10;2.10;;;1.10;;
65471;SDS011;52068;50.710;14.492;2023-09-19T07:43:35;1.33;;;0.90;;
65471;SDS011;52068;50.710;14.492;2023-09-19T07:46:06;1.90;;;0.88;;
65471;SDS011;52068;50.710;14.492;2023-09-19T07:48:34;1.95;;;0.82;;
65471;SDS011;52068;50.710;14.492;2023-09-19T07:51:04;0.85;;;0.85;;
65471;SDS011;52068;50.710;14.492;2023-09-19T07:53:34;1.33;;;1.10;;
65471;SDS011;52068;50.710;14.492;2023-09-19T07:56:07;0.95;;;0.93;;
65471;SDS011;52068;50.710;14.492;2023-09-19T07:58:34;3.47;;;1.00;;
65471;SDS011;52068;50.710;14.492;2023-09-19T08:01:04;1.17;;;1.08;;
65471;SDS011;52068;50.710;14.492;2023-09-19T08:03:30;2.13;;;1.20;;
65471;SDS011;52068;50.710;14.492;2023-09-19T08:05:58;0.90;;;0.90;;
65471;SDS011;52068;50.710;14.492;2023-09-19T08:08:24;1.52;;;0.95;;
65471;SDS011;52068;50.710;14.492;2023-09-19T08:10:54;1.08;;;0.90;;
65471;SDS011;52068;50.710;14.492;2023-09-19T08:13:23;1.20;;;1.10;;
65471;SDS011;52068;50.710;14.492;2023-09-19T08:15:48;1.10;;;0.85;;
65471;SDS011;52068;50.710;14.492;2023-09-19T08:18:14;1.55;;;1.00;;
65471;SDS011;52068;50.710;14.492;2023-09-19T08:20:40;1.10;;;0.90;;
65471;SDS011;52068;50.710;14.492;2023-09-19T08:23:07;4.30;;;1.02;;
65471;SDS011;52068;50.710;14.492;2023-09-19T08:25:33;1.00;;;1.00;;
65471;SDS011;52068;50.710;14.492;2023-09-19T08:27:59;1.10;;;1.00;;
65471;SDS011;52068;50.710;14.492;2023-09-19T08:30:26;1.35;;;1.02;;
65471;SDS011;52068;50.710;14.492;2023-09-19T08:32:58;1.45;;;1.10;;
65471;SDS011;52068;50.710;14.492;2023-09-19T08:35:28;2.13;;;0.82;;
65471;SDS011;52068;50.710;14.492;2023-09-19T08:37:53;1.10;;;1.00;;
65471;SDS011;52068;50.710;14.492;2023-09-19T08:40:20;1.42;;;1.10;;
65471;SDS011;52068;50.710;14.492;2023-09-19T08:42:47;1.55;;;1.25;;
65471;SDS011;52068;50.710;14.492;2023-09-19T08:45:16;3.05;;;1.00;;
65471;SDS011;52068;50.710;14.492;2023-09-19T08:48:04;1.75;;;1.20;;
65471;SDS011;52068;50.710;14.492;2023-09-19T08:50:43;0.80;;;0.80;;
65471;SDS011;52068;50.710;14.492;2023-09-19T08:53:16;3.63;;;0.90;;
65471;SDS011;52068;50.710;14.492;2023-09-19T08:56:06;2.30;;;1.00;;
65471;SDS011;52068;50.710;14.492;2023-09-19T08:58:40;1.33;;;1.20;;
65471;SDS011;52068;50.710;14.492;2023-09-19T09:01:14;1.65;;;1.00;;
65471;SDS011;52068;50.710;14.492;2023-09-19T09:03:41;1.88;;;0.98;;
65471;SDS011;52068;50.710;14.492;2023-09-19T09:06:11;2.72;;;0.90;;
65471;SDS011;52068;50.710;14.492;2023-09-19T09:08:40;0.90;;;0.80;;
65471;SDS011;52068;50.710;14.492;2023-09-19T09:11:06;1.38;;;0.98;;
65471;SDS011;52068;50.710;14.492;2023-09-19T09:13:33;1.20;;;1.10;;
65471;SDS011;52068;50.710;14.492;2023-09-19T09:16:00;1.20;;;1.10;;
65471;SDS011;52068;50.710;14.492;2023-09-19T09:18:25;1.55;;;0.90;;
65471;SDS011;52068;50.710;14.492;2023-09-19T09:20:51;0.88;;;0.75;;
65471;SDS011;52068;50.710;14.492;2023-09-19T09:23:16;1.27;;;1.05;;
65471;SDS011;52068;50.710;14.492;2023-09-19T09:25:52;1.25;;;1.00;;
65471;SDS011;52068;50.710;14.492;2023-09-19T09:28:27;1.52;;;1.10;;
65471;SDS011;52068;50.710;14.492;2023-09-19T09:30:56;2.90;;;1.00;;
65471;SDS011;52068;50.710;14.492;2023-09-19T09:33:23;1.75;;;1.00;;
65471;SDS011;52068;50.710;14.492;2023-09-19T09:35:53;0.80;;;0.80;;
65471;SDS011;52068;50.710;14.492;2023-09-19T09:38:26;2.30;;;0.90;;
65471;SDS011;52068;50.710;14.492;2023-09-19T09:40:53;1.10;;;1.00;;
65471;SDS011;52068;50.710;14.492;2023-09-19T09:46:07;1.17;;;0.90;;
65471;SDS011;52068;50.710;14.492;2023-09-19T09:48:45;1.70;;;0.90;;
65471;SDS011;52068;50.710;14.492;2023-09-19T09:51:32;1.40;;;0.70;;
65471;SDS011;52068;50.710;14.492;2023-09-19T09:54:14;1.17;;;0.88;;
65471;SDS011;52068;50.710;14.492;2023-09-19T09:56:56;4.32;;;1.15;;
65471;SDS011;52068;50.710;14.492;2023-09-19T09:59:45;0.98;;;0.80;;
65471;SDS011;52068;50.710;14.492;2023-09-19T10:02:30;1.13;;;0.80;;
65471;SDS011;52068;50.710;14.492;2023-09-19T10:05:15;1.75;;;1.05;;
65471;SDS011;52068;50.710;14.492;2023-09-19T10:07:44;2.28;;;0.90;;
65471;SDS011;52068;50.710;14.492;2023-09-19T10:10:34;0.90;;;0.90;;
65471;SDS011;52068;50.710;14.492;2023-09-19T10:13:12;2.08;;;0.90;;
65471;SDS011;52068;50.710;14.492;2023-09-19T10:15:40;1.30;;;1.10;;
65471;SDS011;52068;50.710;14.492;2023-09-19T10:18:11;1.20;;;0.80;;
65471;SDS011;52068;50.710;14.492;2023-09-19T10:20:43;2.33;;;1.17;;
65471;SDS011;52068;50.710;14.492;2023-09-19T10:23:10;2.95;;;1.00;;
65471;SDS011;52068;50.710;14.492;2023-09-19T10:25:43;1.52;;;1.10;;
65471;SDS011;52068;50.710;14.492;2023-09-19T10:28:12;1.17;;;0.95;;
65471;SDS011;52068;50.710;14.492;2023-09-19T10:30:42;0.65;;;0.65;;
65471;SDS011;52068;50.710;14.492;2023-09-19T10:33:22;2.15;;;0.95;;
65471;SDS011;52068;50.710;14.492;2023-09-19T10:35:50;1.80;;;1.20;;
65471;SDS011;52068;50.710;14.492;2023-09-19T10:38:19;2.25;;;1.10;;
65471;SDS011;52068;50.710;14.492;2023-09-19T10:40:49;1.33;;;1.02;;
65471;SDS011;52068;50.710;14.492;2023-09-19T10:43:16;0.95;;;0.82;;
65471;SDS011;52068;50.710;14.492;2023-09-19T10:45:46;1.33;;;1.10;;
65471;SDS011;52068;50.710;14.492;2023-09-19T10:48:14;1.25;;;0.93;;
65471;SDS011;52068;50.710;14.492;2023-09-19T10:53:15;0.95;;;0.95;;
65471;SDS011;52068;50.710;14.492;2023-09-19T10:55:47;1.65;;;0.70;;
65471;SDS011;52068;50.710;14.492;2023-09-19T10:58:28;1.10;;;0.70;;
65471;SDS011;52068;50.710;14.492;2023-09-19T11:00:55;2.08;;;0.93;;
65471;SDS011;52068;50.710;14.492;2023-09-19T11:03:26;1.13;;;1.03;;
65471;SDS011;52068;50.710;14.492;2023-09-19T11:36:02;0.80;;;0.80;;
65471;SDS011;52068;50.710;14.492;2023-09-19T11:46:13;1.25;;;0.90;;
65471;SDS011;52068;50.710;14.492;2023-09-19T11:48:41;1.90;;;1.10;;
65471;SDS011;52068;50.710;14.492;2023-09-19T11:51:10;2.65;;;0.90;;
65471;SDS011;52068;50.710;14.492;2023-09-19T11:53:40;0.80;;;0.80;;
65471;SDS011;52068;50.710;14.492;2023-09-19T11:56:08;1.58;;;1.00;;
65471;SDS011;52068;50.710;14.492;2023-09-19T11:58:35;1.30;;;1.05;;
65471;SDS011;52068;50.710;14.492;2023-09-19T12:01:02;1.30;;;1.00;;
65471;SDS011;52068;50.710;14.492;2023-09-19T12:03:33;1.13;;;1.00;;
65471;SDS011;52068;50.710;14.492;2023-09-19T12:06:10;1.90;;;1.00;;
65471;SDS011;52068;50.710;14.492;2023-09-19T12:08:39;3.85;;;1.10;;
65471;SDS011;52068;50.710;14.492;2023-09-19T12:11:05;1.60;;;1.00;;
65471;SDS011;52068;50.710;14.492;2023-09-19T12:13:34;1.15;;;1.05;;
65471;SDS011;52068;50.710;14.492;2023-09-19T12:16:10;1.75;;;0.88;;
65471;SDS011;52068;50.710;14.492;2023-09-19T12:18:40;0.80;;;0.80;;
65471;SDS011;52068;50.710;14.492;2023-09-19T12:21:08;1.67;;;1.25;;
65471;SDS011;52068;50.710;14.492;2023-09-19T12:23:37;1.80;;;1.10;;
65471;SDS011;52068;50.710;14.492;2023-09-19T12:26:06;1.23;;;0.90;;
65471;SDS011;52068;50.710;14.492;2023-09-19T12:28:38;1.70;;;0.90;;
65471;SDS011;52068;50.710;14.492;2023-09-19T12:31:07;1.25;;;0.82;;
65471;SDS011;52068;50.710;14.492;2023-09-19T12:33:33;1.42;;;0.95;;
65471;SDS011;52068;50.710;14.492;2023-09-19T12:35:59;1.95;;;1.00;;
65471;SDS011;52068;50.710;14.492;2023-09-19T12:38:25;1.52;;;0.90;;
65471;SDS011;52068;50.710;14.492;2023-09-19T12:40:53;0.98;;;0.90;;
65471;SDS011;52068;50.710;14.492;2023-09-19T12:43:20;1.25;;;1.00;;
65471;SDS011;52068;50.710;14.492;2023-09-19T12:45:46;0.98;;;0.80;;
65471;SDS011;52068;50.710;14.492;2023-09-19T12:48:22;1.10;;;1.00;;
65471;SDS011;52068;50.710;14.492;2023-09-19T12:53:25;1.25;;;0.90;;
65471;SDS011;52068;50.710;14.492;2023-09-19T12:56:00;1.02;;;0.93;;
65471;SDS011;52068;50.710;14.492;2023-09-19T12:58:26;0.83;;;0.83;;
65471;SDS011;52068;50.710;14.492;2023-09-19T13:00:52;1.45;;;0.85;;
65471;SDS011;52068;50.710;14.492;2023-09-19T13:05:58;2.38;;;0.95;;
65471;SDS011;52068;50.710;14.492;2023-09-19T13:11:07;1.13;;;1.00;;
65471;SDS011;52068;50.710;14.492;2023-09-19T13:14:23;0.90;;;0.90;;
65471;SDS011;52068;50.710;14.492;2023-09-19T13:16:55;0.90;;;0.80;;
65471;SDS011;52068;50.710;14.492;2023-09-19T13:19:37;1.17;;;1.00;;
65471;SDS011;52068;50.710;14.492;2023-09-19T13:22:02;1.45;;;1.05;;
65471;SDS011;52068;50.710;14.492;2023-09-19T13:24:28;2.72;;;0.93;;
65471;SDS011;52068;50.710;14.492;2023-09-19T13:26:55;1.48;;;1.00;;
65471;SDS011;52068;50.710;14.492;2023-09-19T13:29:21;0.80;;;0.70;;
65471;SDS011;52068;50.710;14.492;2023-09-19T13:31:48;1.10;;;0.90;;
65471;SDS011;52068;50.710;14.492;2023-09-19T13:34:14;1.17;;;0.88;;
65471;SDS011;52068;50.710;14.492;2023-09-19T13:36:41;1.50;;;0.85;;
65471;SDS011;52068;50.710;14.492;2023-09-19T13:39:07;2.53;;;1.00;;
65471;SDS011;52068;50.710;14.492;2023-09-19T13:41:34;1.58;;;0.80;;
65471;SDS011;52068;50.710;14.492;2023-09-19T13:44:01;1.65;;;1.08;;
65471;SDS011;52068;50.710;14.492;2023-09-19T13:46:27;0.80;;;0.80;;
65471;SDS011;52068;50.710;14.492;2023-09-19T13:48:53;0.80;;;0.80;;
65471;SDS011;52068;50.710;14.492;2023-09-19T13:51:24;0.80;;;0.80;;
65471;SDS011;52068;50.710;14.492;2023-09-19T13:53:50;2.83;;;0.95;;
65471;SDS011;52068;50.710;14.492;2023-09-19T13:56:16;0.93;;;0.80;;
65471;SDS011;52068;50.710;14.492;2023-09-19T13:58:41;0.80;;;0.80;;
65471;SDS011;52068;50.710;14.492;2023-09-19T14:01:07;0.90;;;0.90;;
65471;SDS011;52068;50.710;14.492;2023-09-19T14:03:38;0.80;;;0.80;;
65471;SDS011;52068;50.710;14.492;2023-09-19T14:06:04;1.08;;;0.80;;
65471;SDS011;52068;50.710;14.492;2023-09-19T14:08:29;1.23;;;0.95;;
65471;SDS011;52068;50.710;14.492;2023-09-19T14:10:55;1.05;;;0.90;;
65471;SDS011;52068;50.710;14.492;2023-09-19T14:13:21;0.88;;;0.88;;
65471;SDS011;52068;50.710;14.492;2023-09-19T14:15:46;1.73;;;1.00;;
65471;SDS011;52068;50.710;14.492;2023-09-19T14:18:11;0.70;;;0.70;;
65471;SDS011;52068;50.710;14.492;2023-09-19T14:20:37;0.98;;;0.90;;
65471;SDS011;52068;50.710;14.492;2023-09-19T14:23:06;1.88;;;0.90;;
65471;SDS011;52068;50.710;14.492;2023-09-19T14:25:33;2.00;;;0.85;;
65471;SDS011;52068;50.710;14.492;2023-09-19T14:28:00;1.70;;;0.90;;
65471;SDS011;52068;50.710;14.492;2023-09-19T14:30:25;1.02;;;0.93;;
65471;SDS011;52068;50.710;14.492;2023-09-19T14:32:51;1.20;;;0.90;;
65471;SDS011;52068;50.710;14.492;2023-09-19T14:35:16;0.88;;;0.88;;
65471;SDS011;52068;50.710;14.492;2023-09-19T14:37:42;1.42;;;0.90;;
65471;SDS011;52068;50.710;14.492;2023-09-19T14:40:08;0.75;;;0.75;;
65471;SDS011;52068;50.710;14.492;2023-09-19T14:42:38;0.80;;;0.80;;
65471;SDS011;52068;50.710;14.492;2023-09-19T14:45:04;1.42;;;0.80;;
65471;SDS011;52068;50.710;14.492;2023-09-19T14:47:31;1.38;;;0.93;;
65471;SDS011;52068;50.710;14.492;2023-09-19T14:50:00;0.77;;;0.73;;
65471;SDS011;52068;50.710;14.492;2023-09-19T14:52:27;1.77;;;0.70;;
65471;SDS011;52068;50.710;14.492;2023-09-19T14:54:53;0.80;;;0.80;;
65471;SDS011;52068;50.710;14.492;2023-09-19T14:57:19;1.30;;;0.70;;
65471;SDS011;52068;50.710;14.492;2023-09-19T14:59:45;0.75;;;0.75;;
65471;SDS011;52068;50.710;14.492;2023-09-19T15:02:10;1.08;;;0.80;;
65471;SDS011;52068;50.710;14.492;2023-09-19T15:04:35;2.25;;;0.68;;
65471;SDS011;52068;50.710;14.492;2023-09-19T15:07:02;0.95;;;0.80;;
65471;SDS011;52068;50.710;14.492;2023-09-19T15:09:27;0.82;;;0.77;;
65471;SDS011;52068;50.710;14.492;2023-09-19T15:11:53;1.48;;;1.00;;
65471;SDS011;52068;50.710;14.492;2023-09-19T15:14:19;0.80;;;0.80;;
65471;SDS011;52068;50.710;14.492;2023-09-19T15:16:45;1.48;;;1.02;;
65471;SDS011;52068;50.710;14.492;2023-09-19T15:19:11;1.13;;;0.70;;
65471;SDS011;52068;50.710;14.492;2023-09-19T15:21:37;1.00;;;0.90;;
65471;SDS011;52068;50.710;14.492;2023-09-19T15:24:02;0.70;;;0.70;;
65471;SDS011;52068;50.710;14.492;2023-09-19T15:26:28;0.80;;;0.80;;
65471;SDS011;52068;50.710;14.492;2023-09-19T15:28:54;0.77;;;0.70;;
65471;SDS011;52068;50.710;14.492;2023-09-19T15:31:20;0.70;;;0.70;;
65471;SDS011;52068;50.710;14.492;2023-09-19T15:33:45;1.00;;;0.90;;
65471;SDS011;52068;50.710;14.492;2023-09-19T15:36:12;1.10;;;1.00;;
65471;SDS011;52068;50.710;14.492;2023-09-19T15:38:54;0.93;;;0.80;;
65471;SDS011;52068;50.710;14.492;2023-09-19T15:41:39;1.00;;;0.80;;
65471;SDS011;52068;50.710;14.492;2023-09-19T15:44:12;1.08;;;0.98;;
65471;SDS011;52068;50.710;14.492;2023-09-19T15:46:40;0.93;;;0.90;;
65471;SDS011;52068;50.710;14.492;2023-09-19T15:49:06;0.70;;;0.70;;